Time;durP1;ratioP1;P1;durP2;ratioP2;P2;SDS_P1;SDS_P2;PMS_P1;PMS_P2;Temp;Humidity;BMP_temperature;BMP_pressure;BME280_temperature;BME280_humidity;BME280_pressure;Samples;Min_cycle;Max_cycle;Signal;HPM_P1;HPM_P2
2021/01/26 00:00:46;;;;;;;14.93;12.27;;;0.70;99.80;;;;;;4985731;28;20181;-88
2021/01/26 00:03:12;;;;;;;17.00;13.07;;;0.70;99.80;;;;;;5002845;28;20218;-87
2021/01/26 00:05:37;;;;;;;15.33;13.20;;;0.80;99.00;;;;;;4985590;28;20213;-87
2021/01/26 00:08:04;;;;;;;17.33;13.23;;;0.70;99.50;;;;;;4985936;28;20175;-88
2021/01/26 00:10:29;;;;;;;16.90;14.40;;;0.70;99.80;;;;;;4985864;28;20186;-88
2021/01/26 00:12:55;;;;;;;17.30;13.90;;;0.60;99.80;;;;;;4985326;28;20182;-88
2021/01/26 00:15:21;;;;;;;15.77;13.60;;;0.60;99.90;;;;;;4970922;28;20222;-87
2021/01/26 00:17:47;;;;;;;17.53;13.27;;;0.70;99.70;;;;;;4982148;28;20191;-87
2021/01/26 00:20:15;;;;;;;18.43;13.93;;;0.50;99.70;;;;;;4982320;28;20269;-87
2021/01/26 00:22:42;;;;;;;19.17;13.20;;;0.50;99.90;;;;;;4965605;28;20238;-89
2021/01/26 00:25:10;;;;;;;16.77;13.33;;;0.50;99.60;;;;;;4982358;28;20598;-88
2021/01/26 00:27:36;;;;;;;19.30;14.17;;;0.50;99.40;;;;;;4978322;28;20182;-88
2021/01/26 00:30:05;;;;;;;17.10;13.67;;;0.60;98.20;;;;;;4987663;28;20679;-89
2021/01/26 00:32:31;;;;;;;16.90;13.77;;;0.70;97.50;;;;;;4985329;28;20192;-89
2021/01/26 00:34:57;;;;;;;16.47;13.40;;;0.60;98.00;;;;;;5002142;28;20229;-88
2021/01/26 00:37:22;;;;;;;17.57;13.63;;;0.70;96.90;;;;;;4968554;28;20193;-89
2021/01/26 00:39:48;;;;;;;18.40;13.43;;;0.70;96.90;;;;;;5001727;28;20229;-89
2021/01/26 00:42:14;;;;;;;16.90;13.63;;;0.70;96.20;;;;;;4983225;28;20270;-88
2021/01/26 00:44:39;;;;;;;20.00;12.43;;;0.70;95.90;;;;;;4983011;28;20238;-89
2021/01/26 00:47:05;;;;;;;17.97;13.80;;;0.70;95.90;;;;;;5000997;28;20193;-88
2021/01/26 00:49:31;;;;;;;17.30;14.13;;;0.60;96.50;;;;;;5001234;28;20198;-89
2021/01/26 00:51:56;;;;;;;16.83;13.17;;;0.70;96.20;;;;;;5000955;28;20193;-89
2021/01/26 00:54:22;;;;;;;19.97;13.80;;;0.60;96.60;;;;;;5000808;28;20212;-89
2021/01/26 00:56:47;;;;;;;18.60;13.87;;;0.70;96.30;;;;;;5000602;28;20207;-89
2021/01/26 00:59:13;;;;;;;18.93;13.70;;;0.60;96.60;;;;;;5000737;28;20190;-88
2021/01/26 01:01:39;;;;;;;21.73;14.93;;;0.70;96.60;;;;;;5000996;28;20208;-89
2021/01/26 01:04:04;;;;;;;19.73;14.60;;;0.60;97.10;;;;;;5000932;28;20277;-89
2021/01/26 01:06:30;;;;;;;17.53;13.53;;;0.70;97.60;;;;;;5001106;28;20237;-89
2021/01/26 01:08:56;;;;;;;21.63;15.50;;;0.70;96.70;;;;;;4999378;28;20711;-90
2021/01/26 01:11:21;;;;;;;18.73;13.93;;;0.60;97.90;;;;;;4980830;28;20592;-88
2021/01/26 01:13:47;;;;;;;21.00;15.20;;;0.60;97.30;;;;;;4984840;28;20254;-90
2021/01/26 01:16:13;;;;;;;19.07;15.20;;;0.60;98.20;;;;;;4982591;28;20274;-89
2021/01/26 01:18:39;;;;;;;19.77;14.57;;;0.60;98.10;;;;;;4980580;28;20183;-90
2021/01/26 01:21:05;;;;;;;18.77;14.27;;;0.50;98.70;;;;;;4980554;28;20227;-89
2021/01/26 01:23:30;;;;;;;21.43;14.77;;;0.60;99.20;;;;;;4980308;28;20229;-89
2021/01/26 01:26:00;;;;;;;17.27;13.60;;;0.60;98.60;;;;;;4980485;28;20195;-89
2021/01/26 01:28:27;;;;;;;20.30;14.27;;;0.60;98.40;;;;;;4980753;28;20203;-89
2021/01/26 01:30:57;;;;;;;17.40;13.20;;;0.60;98.40;;;;;;4988952;28;20197;-90
2021/01/26 01:33:24;;;;;;;20.50;15.50;;;0.70;97.50;;;;;;4999535;28;20178;-89
2021/01/26 01:35:50;;;;;;;19.07;13.67;;;0.70;97.60;;;;;;5000204;28;20193;-90
2021/01/26 01:38:16;;;;;;;24.53;15.83;;;0.70;98.10;;;;;;4999569;28;20183;-89
2021/01/26 01:40:42;;;;;;;19.27;14.40;;;0.60;98.60;;;;;;4999779;28;20552;-89
2021/01/26 01:43:08;;;;;;;18.87;13.87;;;0.70;98.10;;;;;;4982865;28;20205;-89
2021/01/26 01:45:33;;;;;;;21.37;14.53;;;0.70;97.20;;;;;;4999943;28;20189;-89
2021/01/26 01:48:04;;;;;;;20.07;13.60;;;0.70;96.80;;;;;;4982418;28;20187;-89
2021/01/26 01:51:02;;;;;;;21.10;14.80;;;0.80;96.60;;;;;;4983888;28;20179;-88
2021/01/26 01:53:40;;;;;;;19.10;14.10;;;0.70;96.80;;;;;;4986350;28;20269;-89
2021/01/26 01:56:10;;;;;;;21.87;14.97;;;0.60;97.90;;;;;;4995154;28;20185;-89
2021/01/26 01:58:45;;;;;;;19.23;14.30;;;0.60;97.70;;;;;;4999346;28;20182;-89
2021/01/26 02:01:15;;;;;;;19.10;14.03;;;0.50;98.40;;;;;;4999740;28;20189;-88
2021/01/26 02:03:56;;;;;;;18.67;14.13;;;0.50;98.30;;;;;;4981670;28;20218;-89
2021/01/26 02:06:27;;;;;;;22.77;14.97;;;0.50;98.50;;;;;;4980587;28;20654;-89
2021/01/26 02:09:31;;;;;;;16.37;12.87;;;0.50;98.70;;;;;;4980468;28;20190;-88
2021/01/26 02:11:57;;;;;;;20.43;13.23;;;0.60;97.80;;;;;;4919850;29;20193;-89
2021/01/26 02:14:29;;;;;;;19.97;13.50;;;0.60;97.60;;;;;;4967259;28;20321;-89
2021/01/26 02:17:02;;;;;;;20.80;13.67;;;0.50;98.30;;;;;;4980484;28;20194;-89
2021/01/26 02:19:58;;;;;;;20.53;13.73;;;0.40;98.70;;;;;;4980166;28;20168;-89
2021/01/26 02:22:26;;;;;;;20.17;14.60;;;0.50;98.50;;;;;;4980270;28;20213;-88
2021/01/26 02:25:10;;;;;;;20.40;14.97;;;0.50;98.40;;;;;;4980223;28;20198;-88
2021/01/26 02:27:59;;;;;;;18.87;13.17;;;0.50;97.60;;;;;;4979571;28;20179;-88
2021/01/26 02:30:47;;;;;;;19.33;13.63;;;0.50;97.80;;;;;;4982559;28;20179;-89
2021/01/26 02:33:51;;;;;;;17.30;12.93;;;0.60;97.20;;;;;;4979322;28;20189;-89
2021/01/26 02:36:36;;;;;;;18.40;12.80;;;0.70;96.90;;;;;;4980000;28;20178;-89
2021/01/26 02:39:23;;;;;;;17.70;11.57;;;0.70;96.80;;;;;;4979771;28;20673;-87
2021/01/26 02:42:07;;;;;;;22.17;12.43;;;0.80;95.90;;;;;;4978818;28;20290;-89
2021/01/26 02:44:44;;;;;;;18.73;12.77;;;0.70;96.20;;;;;;4979440;28;20210;-88
2021/01/26 02:47:27;;;;;;;18.13;12.60;;;0.70;97.10;;;;;;4962335;28;20202;-89
2021/01/26 02:50:29;;;;;;;17.27;13.33;;;0.80;96.50;;;;;;4979786;28;20174;-89
2021/01/26 02:53:03;;;;;;;17.13;12.43;;;0.80;96.50;;;;;;4979465;28;20175;-88
2021/01/26 02:55:40;;;;;;;16.63;13.03;;;0.80;96.40;;;;;;4979535;28;20202;-88
2021/01/26 02:58:25;;;;;;;17.67;12.90;;;0.80;96.40;;;;;;4991467;28;20216;-89
2021/01/26 03:00:55;;;;;;;16.30;11.87;;;0.80;96.30;;;;;;4998889;28;20194;-88
2021/01/26 03:03:28;;;;;;;17.47;13.23;;;0.80;96.60;;;;;;4998794;28;20224;-88
2021/01/26 03:06:19;;;;;;;18.73;12.57;;;0.80;97.20;;;;;;4998930;28;20171;-89
2021/01/26 03:08:57;;;;;;;17.60;12.67;;;0.80;96.60;;;;;;4998662;28;20170;-88
2021/01/26 03:11:36;;;;;;;16.80;12.03;;;0.80;96.50;;;;;;4999431;28;20201;-88
2021/01/26 03:14:15;;;;;;;17.77;11.57;;;0.90;96.40;;;;;;5000136;28;20209;-88
2021/01/26 03:16:44;;;;;;;17.77;11.20;;;0.90;95.60;;;;;;5007634;28;20170;-89
2021/01/26 03:19:18;;;;;;;16.77;12.70;;;0.90;95.20;;;;;;4999258;28;20229;-89
2021/01/26 03:21:48;;;;;;;16.07;11.63;;;0.80;95.70;;;;;;4999007;28;20324;-89
2021/01/26 03:24:27;;;;;;;15.43;11.43;;;0.80;95.20;;;;;;4999243;28;20553;-89
2021/01/26 03:26:53;;;;;;;14.23;11.50;;;0.90;94.20;;;;;;5001958;28;20185;-88
2021/01/26 03:29:23;;;;;;;15.30;11.53;;;0.90;94.90;;;;;;5001050;28;20202;-88
2021/01/26 03:31:52;;;;;;;15.53;11.50;;;0.90;94.90;;;;;;5000846;28;20518;-89
2021/01/26 03:34:19;;;;;;;17.17;10.97;;;0.90;94.50;;;;;;5000926;28;20230;-89
2021/01/26 03:36:45;;;;;;;14.50;11.13;;;1.00;93.60;;;;;;5001119;28;20182;-89
2021/01/26 03:39:12;;;;;;;13.27;10.00;;;0.90;94.40;;;;;;5000937;28;20182;-89
2021/01/26 03:41:38;;;;;;;13.73;10.27;;;0.90;94.00;;;;;;5000651;28;20179;-88
2021/01/26 03:44:05;;;;;;;13.93;10.30;;;1.00;92.80;;;;;;5000723;28;20201;-89
2021/01/26 03:46:57;;;;;;;13.20;10.00;;;0.90;93.40;;;;;;5000501;28;20185;-89
2021/01/26 03:49:53;;;;;;;14.63;10.37;;;1.00;92.80;;;;;;5000920;28;20171;-89
2021/01/26 03:52:43;;;;;;;15.27;11.17;;;0.90;93.70;;;;;;5000521;28;20322;-89
2021/01/26 03:55:35;;;;;;;13.50;9.60;;;0.90;95.10;;;;;;5000550;28;20284;-89
2021/01/26 03:58:26;;;;;;;12.47;9.53;;;0.90;94.60;;;;;;4985419;28;20241;-88
2021/01/26 04:00:58;;;;;;;12.73;8.70;;;1.00;93.30;;;;;;4963621;28;20201;-89
2021/01/26 04:03:53;;;;;;;11.40;8.97;;;1.00;93.00;;;;;;4980393;28;20298;-89
2021/01/26 04:06:46;;;;;;;11.20;8.47;;;1.10;91.90;;;;;;4980714;28;20599;-89
2021/01/26 04:09:22;;;;;;;10.57;8.33;;;1.00;92.30;;;;;;4981448;28;20179;-89
2021/01/26 04:12:02;;;;;;;12.20;8.70;;;1.00;92.90;;;;;;4964000;28;20182;-89
2021/01/26 04:14:38;;;;;;;12.27;8.83;;;1.10;93.20;;;;;;4980993;28;20217;-88
2021/01/26 04:17:32;;;;;;;11.03;8.93;;;1.10;92.40;;;;;;4980995;28;20190;-89
2021/01/26 04:20:06;;;;;;;9.90;8.33;;;1.10;92.00;;;;;;4981027;28;20202;-89
2021/01/26 04:22:32;;;;;;;12.27;9.43;;;1.00;92.80;;;;;;4963212;28;20274;-89
2021/01/26 04:24:57;;;;;;;10.20;8.50;;;1.10;92.40;;;;;;4980708;28;20233;-89
2021/01/26 04:27:24;;;;;;;11.23;8.50;;;1.20;92.20;;;;;;4963518;28;20225;-89
2021/01/26 04:29:51;;;;;;;10.63;8.17;;;1.10;91.60;;;;;;4997036;28;20178;-88
2021/01/26 04:32:19;;;;;;;9.33;8.10;;;1.20;91.40;;;;;;4982601;28;20182;-88
2021/01/26 04:34:45;;;;;;;10.73;8.20;;;1.20;91.70;;;;;;4999747;28;20194;-88
2021/01/26 04:37:11;;;;;;;11.03;8.00;;;1.10;92.20;;;;;;5000312;28;20258;-88
2021/01/26 04:39:37;;;;;;;9.40;7.80;;;1.10;92.80;;;;;;5010570;28;20182;-88
2021/01/26 04:42:15;;;;;;;12.60;8.20;;;1.10;92.90;;;;;;5000424;28;20214;-89
2021/01/26 04:44:56;;;;;;;10.60;7.60;;;1.10;91.90;;;;;;4990278;28;20238;-87
2021/01/26 04:47:42;;;;;;;12.03;8.27;;;1.10;92.10;;;;;;4980817;28;20515;-88
2021/01/26 04:50:38;;;;;;;12.67;7.23;;;1.20;92.20;;;;;;4980311;28;20167;-88
2021/01/26 04:53:33;;;;;;;10.77;7.53;;;1.20;91.20;;;;;;4980246;28;20171;-89
2021/01/26 04:56:13;;;;;;;10.97;7.17;;;1.30;91.80;;;;;;4979845;28;20234;-88
2021/01/26 04:59:00;;;;;;;9.60;7.13;;;1.30;91.20;;;;;;4996312;28;20186;-88
2021/01/26 05:02:03;;;;;;;8.67;7.00;;;1.30;90.30;;;;;;4983090;28;20504;-87
2021/01/26 05:04:31;;;;;;;8.97;7.07;;;1.20;91.10;;;;;;4979773;28;20213;-88
2021/01/26 05:07:13;;;;;;;9.63;7.70;;;1.20;90.90;;;;;;4979733;28;20335;-88
2021/01/26 05:09:58;;;;;;;10.87;6.80;;;1.20;91.00;;;;;;4980358;28;20651;-89
2021/01/26 05:12:27;;;;;;;9.87;7.47;;;1.20;91.20;;;;;;4980044;28;20530;-88
2021/01/26 05:14:58;;;;;;;10.20;6.67;;;1.20;90.90;;;;;;4979736;28;20206;-88
2021/01/26 05:17:59;;;;;;;9.27;6.87;;;1.30;90.70;;;;;;4998095;28;20186;-89
2021/01/26 05:20:38;;;;;;;9.03;6.60;;;1.30;89.80;;;;;;4934313;28;20663;-89
2021/01/26 05:23:20;;;;;;;10.03;6.57;;;1.30;89.70;;;;;;5000436;28;20210;-90
2021/01/26 05:25:46;;;;;;;7.77;6.07;;;1.40;88.60;;;;;;4981740;28;20185;-89
2021/01/26 05:28:12;;;;;;;9.13;6.00;;;1.40;87.70;;;;;;4982638;28;20179;-90
2021/01/26 05:30:38;;;;;;;8.53;6.40;;;1.50;87.60;;;;;;4982060;28;20207;-89
2021/01/26 05:33:13;;;;;;;10.03;6.73;;;1.60;87.70;;;;;;4982273;28;20190;-89
2021/01/26 05:35:44;;;;;;;10.33;6.47;;;1.40;88.70;;;;;;4967949;28;20185;-89
2021/01/26 05:38:10;;;;;;;9.77;6.93;;;1.40;88.80;;;;;;5001405;28;20269;-89
2021/01/26 05:40:40;;;;;;;9.70;6.30;;;1.50;89.10;;;;;;5001342;28;20296;-90
2021/01/26 05:43:09;;;;;;;8.57;6.73;;;1.40;88.90;;;;;;4982281;28;20213;-89
2021/01/26 05:45:44;;;;;;;8.20;5.97;;;1.40;89.40;;;;;;4983210;28;20733;-89
2021/01/26 05:48:13;;;;;;;8.03;5.47;;;1.40;90.10;;;;;;5000295;28;20181;-89
2021/01/26 05:50:41;;;;;;;9.97;6.50;;;1.50;88.20;;;;;;4985179;28;20198;-90
2021/01/26 05:53:30;;;;;;;9.10;6.10;;;1.40;89.00;;;;;;4980006;28;20198;-90
2021/01/26 05:56:13;;;;;;;7.90;5.80;;;1.40;88.80;;;;;;4980744;28;20187;-89
2021/01/26 05:58:41;;;;;;;7.90;5.93;;;1.50;88.80;;;;;;4977728;28;20194;-88
2021/01/26 06:01:09;;;;;;;7.83;5.93;;;1.40;89.30;;;;;;4979442;28;20274;-88
2021/01/26 06:03:36;;;;;;;8.53;5.93;;;1.40;88.60;;;;;;4985368;28;20218;-89
2021/01/26 06:06:14;;;;;;;7.87;5.70;;;1.40;88.30;;;;;;4968152;28;20688;-88
2021/01/26 06:08:54;;;;;;;7.60;5.83;;;1.50;88.50;;;;;;4993540;28;20197;-89
2021/01/26 06:11:28;;;;;;;8.67;5.53;;;1.50;88.50;;;;;;4980960;28;20545;-89
2021/01/26 06:14:09;;;;;;;7.00;5.27;;;1.50;87.50;;;;;;4978928;28;20316;-89
2021/01/26 06:16:35;;;;;;;7.30;5.43;;;1.60;87.70;;;;;;4996298;28;20224;-89
2021/01/26 06:19:03;;;;;;;8.60;5.70;;;1.70;87.30;;;;;;4996944;28;20182;-89
2021/01/26 06:21:30;;;;;;;9.13;6.10;;;1.50;87.60;;;;;;4997004;28;20183;-89
2021/01/26 06:23:57;;;;;;;7.77;5.70;;;1.50;88.00;;;;;;4996450;28;20578;-89
2021/01/26 06:26:34;;;;;;;7.97;5.77;;;1.50;87.80;;;;;;4975485;28;20191;-89
2021/01/26 06:29:22;;;;;;;7.53;5.00;;;1.70;87.30;;;;;;4977383;28;20163;-90
2021/01/26 06:31:53;;;;;;;9.53;4.93;;;1.60;87.90;;;;;;4994463;28;20765;-89
2021/01/26 06:34:43;;;;;;;10.70;4.93;;;1.70;87.70;;;;;;4996836;28;20201;-89
2021/01/26 06:37:30;;;;;;;10.80;5.60;;;1.70;87.60;;;;;;4999577;28;20249;-89
2021/01/26 06:40:12;;;;;;;7.40;5.60;;;1.60;88.20;;;;;;4987407;28;20183;-88
2021/01/26 06:43:06;;;;;;;10.27;5.30;;;1.70;88.40;;;;;;4970053;28;20230;-88
2021/01/26 06:46:20;;;;;;;8.63;5.70;;;1.70;87.90;;;;;;5000993;28;20229;-89
2021/01/26 06:48:51;;;;;;;5.93;4.83;;;1.60;88.50;;;;;;5001567;28;20162;-89
2021/01/26 06:51:58;;;;;;;8.83;5.20;;;1.60;88.70;;;;;;5001314;28;20246;-89
2021/01/26 06:54:48;;;;;;;9.47;5.70;;;1.60;89.30;;;;;;5001707;28;20297;-88
2021/01/26 06:57:32;;;;;;;7.63;5.03;;;1.60;89.60;;;;;;5002983;28;20781;-88
2021/01/26 07:00:10;;;;;;;8.10;5.80;;;1.70;89.30;;;;;;4996311;28;20182;-87
2021/01/26 07:03:07;;;;;;;6.53;5.30;;;1.70;89.10;;;;;;4993047;28;20230;-88
2021/01/26 07:06:00;;;;;;;8.37;5.90;;;1.60;89.80;;;;;;4993919;28;20285;-88
2021/01/26 07:08:32;;;;;;;8.73;5.70;;;1.60;89.90;;;;;;4999943;28;20634;-87
2021/01/26 07:11:15;;;;;;;7.93;5.63;;;1.70;89.70;;;;;;4986711;28;20175;-87
2021/01/26 07:14:02;;;;;;;8.80;6.20;;;1.60;90.30;;;;;;5003986;28;20268;-87
2021/01/26 07:16:46;;;;;;;10.53;5.60;;;1.60;90.00;;;;;;5005056;28;20653;-87
2021/01/26 07:19:30;;;;;;;10.87;5.60;;;1.70;89.70;;;;;;4988120;28;20213;-88
2021/01/26 07:22:14;;;;;;;9.33;5.27;;;1.70;89.70;;;;;;4989110;28;20818;-88
2021/01/26 07:25:02;;;;;;;8.30;5.87;;;1.70;90.20;;;;;;4998049;28;20210;-88
2021/01/26 07:27:57;;;;;;;10.87;5.83;;;1.60;90.60;;;;;;4999005;28;20175;-88
2021/01/26 07:30:36;;;;;;;8.57;5.10;;;1.60;90.40;;;;;;4996696;28;20212;-86
2021/01/26 07:33:27;;;;;;;7.60;5.53;;;1.70;90.60;;;;;;4997274;28;20201;-87
2021/01/26 07:36:01;;;;;;;7.87;5.50;;;1.80;90.30;;;;;;4985265;28;20210;-88
2021/01/26 07:38:51;;;;;;;11.60;6.30;;;1.80;89.70;;;;;;4985469;28;20171;-89
2021/01/26 07:41:29;;;;;;;8.60;5.93;;;1.60;90.90;;;;;;4984811;28;20160;-88
2021/01/26 07:44:13;;;;;;;8.40;5.80;;;1.60;90.40;;;;;;4990772;28;20239;-88
2021/01/26 07:46:49;;;;;;;12.00;6.53;;;1.60;90.50;;;;;;4989900;28;20190;-88
2021/01/26 07:49:24;;;;;;;9.43;6.40;;;1.70;90.40;;;;;;4988718;28;20720;-88
2021/01/26 07:51:55;;;;;;;7.63;5.00;;;1.50;91.20;;;;;;4985655;28;20182;-88
2021/01/26 07:55:08;;;;;;;9.90;5.93;;;1.60;89.80;;;;;;5002189;28;20203;-87
2021/01/26 07:57:51;;;;;;;8.97;5.20;;;1.60;90.10;;;;;;4959593;28;20585;-88
2021/01/26 08:00:22;;;;;;;7.47;5.67;;;1.50;90.00;;;;;;5003945;28;20178;-88
2021/01/26 08:02:54;;;;;;;8.70;5.73;;;1.60;89.60;;;;;;4986631;28;20197;-89
2021/01/26 08:05:46;;;;;;;7.27;5.30;;;1.60;89.00;;;;;;4996703;28;20203;-87
2021/01/26 08:08:22;;;;;;;10.07;5.77;;;1.70;89.50;;;;;;5004959;28;20166;-88
2021/01/26 08:11:07;;;;;;;8.17;4.67;;;1.60;89.80;;;;;;4996432;28;20175;-88
2021/01/26 08:13:35;;;;;;;6.53;5.10;;;1.70;88.90;;;;;;4992014;28;20269;-88
2021/01/26 08:16:19;;;;;;;6.67;5.43;;;1.60;89.80;;;;;;4985157;28;20183;-88
2021/01/26 08:18:45;;;;;;;10.87;6.13;;;1.60;90.10;;;;;;5003033;28;20183;-88
2021/01/26 08:21:31;;;;;;;7.80;5.43;;;1.60;90.30;;;;;;4972608;28;20681;-89
2021/01/26 08:24:20;;;;;;;7.50;5.57;;;1.60;89.90;;;;;;4993891;28;20241;-87
2021/01/26 08:26:47;;;;;;;11.63;6.13;;;1.70;89.10;;;;;;4972357;28;20225;-87
2021/01/26 08:29:38;;;;;;;11.43;6.30;;;1.70;88.60;;;;;;5002077;28;20601;-88
2021/01/26 08:32:22;;;;;;;8.90;5.37;;;1.60;89.10;;;;;;4958518;28;20199;-88
2021/01/26 08:35:11;;;;;;;7.40;5.43;;;1.70;88.50;;;;;;4968531;28;20570;-88
2021/01/26 08:37:42;;;;;;;12.50;5.33;;;1.90;87.30;;;;;;5001633;28;20178;-87
2021/01/26 08:40:09;;;;;;;10.63;5.60;;;1.90;87.50;;;;;;5004299;28;20182;-88
2021/01/26 08:42:41;;;;;;;8.57;5.57;;;1.80;87.70;;;;;;5004552;28;20198;-87
2021/01/26 08:45:15;;;;;;;8.93;5.40;;;1.80;87.90;;;;;;5003703;28;20187;-87
2021/01/26 08:47:58;;;;;;;9.67;5.67;;;1.90;87.90;;;;;;4995386;28;20178;-87
2021/01/26 08:51:01;;;;;;;8.43;5.43;;;1.90;87.30;;;;;;4974247;28;20197;-86
2021/01/26 08:53:27;;;;;;;7.80;5.30;;;1.90;87.50;;;;;;4944575;28;20217;-88
2021/01/26 08:55:58;;;;;;;10.50;5.93;;;1.80;87.50;;;;;;4993578;28;20213;-88
2021/01/26 08:58:42;;;;;;;7.53;5.37;;;1.90;87.90;;;;;;4995649;28;20194;-88
2021/01/26 09:01:22;;;;;;;8.00;5.43;;;1.90;87.30;;;;;;4976971;28;20572;-88
2021/01/26 09:03:58;;;;;;;9.87;5.97;;;1.80;88.40;;;;;;4995748;28;20214;-87
2021/01/26 09:06:39;;;;;;;11.10;6.30;;;2.00;87.50;;;;;;4998285;28;20187;-88
2021/01/26 09:09:06;;;;;;;8.67;5.73;;;2.00;87.30;;;;;;4989382;28;20206;-88
2021/01/26 09:11:37;;;;;;;8.90;6.13;;;2.00;87.10;;;;;;4997457;28;20224;-88
2021/01/26 09:14:26;;;;;;;10.47;6.30;;;2.20;86.40;;;;;;4987486;28;20245;-88
2021/01/26 09:17:18;;;;;;;8.03;6.00;;;2.20;87.00;;;;;;4984124;28;20215;-88
2021/01/26 09:20:09;;;;;;;10.00;5.90;;;2.10;87.20;;;;;;4970265;28;20194;-88
2021/01/26 09:22:35;;;;;;;8.20;5.70;;;2.10;86.80;;;;;;4976091;28;20296;-88
2021/01/26 09:25:26;;;;;;;9.80;5.80;;;2.10;86.90;;;;;;5001997;28;20198;-88
2021/01/26 09:28:01;;;;;;;8.07;6.53;;;2.10;87.00;;;;;;4990724;28;20747;-88
2021/01/26 09:30:29;;;;;;;9.20;5.57;;;2.10;87.00;;;;;;4993786;28;20265;-88
2021/01/26 09:32:54;;;;;;;8.90;6.67;;;2.10;86.20;;;;;;4991136;28;20187;-89
2021/01/26 09:35:22;;;;;;;10.97;6.20;;;2.20;86.40;;;;;;4993052;28;20302;-88
2021/01/26 09:38:06;;;;;;;8.00;5.37;;;2.20;85.90;;;;;;4996593;28;20201;-89
2021/01/26 09:40:33;;;;;;;12.47;6.60;;;2.30;85.40;;;;;;4994643;28;20209;-88
2021/01/26 09:43:14;;;;;;;8.87;5.60;;;2.20;86.00;;;;;;4978116;28;20238;-88
2021/01/26 09:45:41;;;;;;;9.30;5.87;;;2.20;84.60;;;;;;4996490;28;20173;-88
2021/01/26 09:48:08;;;;;;;11.43;5.90;;;2.20;85.10;;;;;;4976549;28;20209;-88
2021/01/26 09:50:34;;;;;;;9.80;6.00;;;2.20;85.50;;;;;;4993330;28;20249;-86
2021/01/26 09:53:03;;;;;;;10.07;6.37;;;2.30;85.00;;;;;;4990880;28;20297;-88
2021/01/26 09:55:31;;;;;;;5.37;4.80;;;2.30;84.50;;;;;;4992577;28;20221;-88
2021/01/26 09:57:58;;;;;;;7.27;5.57;;;2.20;84.40;;;;;;4994714;28;20191;-88
2021/01/26 10:00:27;;;;;;;8.63;6.10;;;2.20;84.70;;;;;;4993885;28;20241;-88
2021/01/26 10:02:59;;;;;;;8.47;5.83;;;2.30;84.40;;;;;;4990561;28;20269;-88
2021/01/26 10:05:27;;;;;;;7.97;5.17;;;2.60;83.50;;;;;;4973726;28;20273;-88
2021/01/26 10:08:09;;;;;;;7.70;5.57;;;2.30;83.90;;;;;;4991968;28;20194;-88
2021/01/26 10:10:35;;;;;;;7.43;5.77;;;2.30;84.40;;;;;;4991157;28;20261;-88
2021/01/26 10:13:24;;;;;;;9.87;6.17;;;2.20;83.90;;;;;;4994529;28;20253;-88
2021/01/26 10:15:50;;;;;;;9.63;6.20;;;2.40;84.00;;;;;;4982448;28;20194;-88
2021/01/26 10:18:41;;;;;;;8.80;5.83;;;2.50;83.40;;;;;;4990543;28;20225;-87
2021/01/26 10:21:10;;;;;;;7.97;6.27;;;2.50;84.00;;;;;;4994964;28;20721;-87
2021/01/26 10:23:40;;;;;;;13.90;6.67;;;2.60;83.20;;;;;;4991477;28;20289;-87
2021/01/26 10:26:26;;;;;;;8.97;5.77;;;2.60;83.10;;;;;;4995781;28;20273;-87
2021/01/26 10:28:56;;;;;;;10.90;6.03;;;2.50;82.60;;;;;;4990702;28;20190;-88
2021/01/26 10:31:22;;;;;;;12.13;5.97;;;2.60;81.50;;;;;;4992756;28;20179;-88
2021/01/26 10:33:48;;;;;;;8.30;6.33;;;2.60;82.30;;;;;;4993826;28;20279;-87
2021/01/26 10:36:22;;;;;;;7.53;5.50;;;2.70;81.80;;;;;;4991625;28;20218;-88
2021/01/26 10:38:48;;;;;;;9.40;6.23;;;2.70;81.30;;;;;;4992965;28;20230;-88
2021/01/26 10:41:28;;;;;;;8.93;5.57;;;2.80;80.20;;;;;;4991800;28;20186;-88
2021/01/26 10:44:07;;;;;;;10.87;6.43;;;2.70;80.90;;;;;;4989448;28;20241;-88
2021/01/26 10:46:38;;;;;;;10.87;7.07;;;2.70;84.10;;;;;;4973253;28;20222;-88
2021/01/26 10:49:16;;;;;;;9.10;6.33;;;2.70;82.20;;;;;;4992780;28;20191;-88
2021/01/26 10:51:43;;;;;;;8.27;6.27;;;2.70;82.10;;;;;;4992377;28;20657;-88
2021/01/26 10:54:09;;;;;;;8.97;6.50;;;2.90;80.90;;;;;;4989122;28;20222;-88
2021/01/26 10:56:35;;;;;;;12.03;6.80;;;3.00;80.40;;;;;;4991757;28;20183;-87
2021/01/26 10:59:01;;;;;;;11.77;5.90;;;3.00;80.50;;;;;;4975002;28;20329;-88
2021/01/26 11:01:27;;;;;;;8.50;5.80;;;3.20;80.50;;;;;;4993680;28;20271;-88
2021/01/26 11:03:54;;;;;;;8.00;4.60;;;3.10;79.10;;;;;;4977812;28;20269;-88
2021/01/26 11:06:24;;;;;;;7.53;5.57;;;3.20;77.60;;;;;;4999703;28;20246;-87
2021/01/26 11:08:50;;;;;;;6.50;5.60;;;3.20;77.30;;;;;;4993055;28;20194;-87
2021/01/26 11:11:19;;;;;;;10.67;6.23;;;3.20;77.70;;;;;;4998292;28;20281;-88
2021/01/26 11:13:46;;;;;;;7.43;5.30;;;3.30;77.40;;;;;;4992259;28;20227;-88
2021/01/26 11:16:12;;;;;;;8.37;6.13;;;3.40;78.10;;;;;;4986774;28;20198;-88
2021/01/26 11:18:38;;;;;;;7.17;5.50;;;3.40;78.20;;;;;;4993819;28;20182;-88
2021/01/26 11:21:05;;;;;;;10.43;5.67;;;3.50;77.20;;;;;;4993054;28;20194;-88
2021/01/26 11:23:31;;;;;;;9.60;5.70;;;3.50;76.90;;;;;;4989758;28;20237;-88
2021/01/26 11:25:56;;;;;;;6.80;5.17;;;3.40;77.20;;;;;;4967940;28;20187;-88
2021/01/26 11:28:22;;;;;;;8.33;5.00;;;3.40;77.50;;;;;;4993296;28;20193;-88
2021/01/26 11:30:48;;;;;;;10.03;5.27;;;3.40;76.20;;;;;;5003516;28;20285;-88
2021/01/26 11:33:14;;;;;;;9.33;5.80;;;3.40;76.20;;;;;;4992362;28;20187;-88
2021/01/26 11:35:40;;;;;;;6.63;5.53;;;3.30;76.50;;;;;;4992239;28;20206;-88
2021/01/26 11:38:06;;;;;;;11.27;5.63;;;3.30;78.20;;;;;;4993144;28;20182;-88
2021/01/26 11:40:32;;;;;;;7.37;4.40;;;3.20;77.60;;;;;;4997601;28;20499;-88
2021/01/26 11:42:58;;;;;;;8.57;5.13;;;3.20;74.70;;;;;;4962615;28;20206;-88
2021/01/26 11:45:33;;;;;;;5.30;4.77;;;3.10;77.00;;;;;;4992981;28;20207;-87
2021/01/26 11:48:00;;;;;;;9.17;5.83;;;3.10;77.00;;;;;;4977125;28;20641;-88
2021/01/26 11:50:26;;;;;;;7.33;5.47;;;3.20;77.10;;;;;;5001894;28;20187;-88
2021/01/26 11:52:53;;;;;;;13.40;5.77;;;3.20;77.30;;;;;;4994879;28;20195;-89
2021/01/26 11:55:23;;;;;;;7.97;5.20;;;3.20;78.90;;;;;;4988377;28;20212;-88
2021/01/26 11:57:49;;;;;;;5.93;4.30;;;3.30;77.90;;;;;;4999039;28;20186;-88
2021/01/26 12:00:22;;;;;;;5.93;4.90;;;3.20;77.70;;;;;;4976410;28;20742;-88
2021/01/26 12:02:49;;;;;;;7.07;5.13;;;3.30;78.40;;;;;;4990315;28;20195;-88
2021/01/26 12:05:16;;;;;;;7.03;5.13;;;3.40;77.00;;;;;;4998994;28;20214;-88
2021/01/26 12:07:42;;;;;;;8.40;5.70;;;3.50;76.80;;;;;;4997502;28;20213;-88
2021/01/26 12:10:08;;;;;;;7.93;5.30;;;3.60;78.40;;;;;;4966917;28;20183;-88
2021/01/26 12:12:34;;;;;;;10.40;4.83;;;3.40;77.20;;;;;;4971400;28;20705;-88
2021/01/26 12:15:02;;;;;;;8.13;5.00;;;3.50;78.20;;;;;;4987994;28;20218;-88
2021/01/26 12:17:28;;;;;;;8.67;5.40;;;3.50;76.30;;;;;;4993792;28;20234;-89
2021/01/26 12:19:54;;;;;;;11.90;5.00;;;3.60;78.00;;;;;;4967355;28;20627;-87
2021/01/26 12:22:19;;;;;;;7.33;4.70;;;3.50;76.70;;;;;;4970361;28;20226;-87
2021/01/26 12:24:45;;;;;;;7.80;4.63;;;3.50;76.70;;;;;;4964849;28;20214;-87
2021/01/26 12:27:11;;;;;;;7.30;4.60;;;3.50;77.20;;;;;;5004195;28;20187;-88
2021/01/26 12:29:37;;;;;;;8.07;5.10;;;3.50;76.20;;;;;;5003813;28;20273;-88
2021/01/26 12:32:03;;;;;;;5.97;4.77;;;3.50;76.50;;;;;;5003768;28;20189;-88
2021/01/26 12:34:29;;;;;;;6.00;4.87;;;3.50;77.40;;;;;;4986009;28;20678;-87
2021/01/26 12:36:54;;;;;;;6.13;4.13;;;3.50;78.30;;;;;;4994616;28;20269;-87
2021/01/26 12:39:20;;;;;;;6.40;4.63;;;3.60;77.00;;;;;;4993850;28;20191;-87
2021/01/26 12:41:49;;;;;;;4.03;3.53;;;3.60;75.90;;;;;;4990906;28;20266;-86
2021/01/26 12:44:16;;;;;;;7.53;4.27;;;3.60;75.90;;;;;;4993216;28;20215;-86
2021/01/26 12:46:42;;;;;;;8.43;5.67;;;3.60;76.90;;;;;;4986966;28;20186;-86
2021/01/26 12:49:08;;;;;;;6.27;4.80;;;3.60;76.50;;;;;;4999163;28;20179;-86
2021/01/26 12:51:34;;;;;;;5.70;4.50;;;3.70;75.20;;;;;;4972249;28;20554;-86
2021/01/26 12:53:59;;;;;;;6.53;4.37;;;3.70;73.80;;;;;;5001648;28;20221;-85
2021/01/26 12:56:25;;;;;;;10.17;6.90;;;3.60;75.10;;;;;;5003346;28;20182;-86
2021/01/26 12:58:51;;;;;;;4.47;3.70;;;3.60;72.80;;;;;;4981603;28;20692;-85
2021/01/26 13:01:17;;;;;;;5.33;4.13;;;3.60;72.80;;;;;;4995754;28;20214;-87
2021/01/26 13:03:42;;;;;;;7.87;5.03;;;3.70;72.60;;;;;;5002656;28;20357;-87
2021/01/26 13:06:08;;;;;;;7.00;4.87;;;3.60;72.80;;;;;;4954263;28;20203;-87
2021/01/26 13:08:34;;;;;;;4.93;4.40;;;3.60;73.90;;;;;;4993623;28;20187;-87
2021/01/26 13:10:59;;;;;;;6.80;4.50;;;3.80;73.20;;;;;;5003137;28;20190;-87
2021/01/26 13:13:25;;;;;;;7.07;4.10;;;3.90;73.80;;;;;;4999149;28;20689;-87
2021/01/26 13:15:51;;;;;;;5.27;4.13;;;4.10;70.70;;;;;;4990378;28;20274;-87
2021/01/26 13:18:16;;;;;;;5.13;3.87;;;4.10;71.50;;;;;;4991553;28;20201;-87
2021/01/26 13:20:42;;;;;;;7.70;3.93;;;4.00;71.90;;;;;;4988774;28;20194;-87
2021/01/26 13:23:09;;;;;;;6.33;4.73;;;4.00;71.60;;;;;;4986460;28;20202;-88